sensor_id;sensor_type;location;lat;lon;timestamp;temperature;humidity
52979;DHT22;63430;53.186;6.598;2023-06-14T00:00:35;15.40;59.00
52979;DHT22;63430;53.186;6.598;2023-06-14T00:02:38;15.40;59.40
52979;DHT22;63430;53.186;6.598;2023-06-14T00:04:41;15.30;60.00
52979;DHT22;63430;53.186;6.598;2023-06-14T00:06:44;15.30;60.20
52979;DHT22;63430;53.186;6.598;2023-06-14T00:08:47;15.30;60.80
52979;DHT22;63430;53.186;6.598;2023-06-14T00:10:53;15.30;61.40
52979;DHT22;63430;53.186;6.598;2023-06-14T00:12:56;15.20;62.40
52979;DHT22;63430;53.186;6.598;2023-06-14T00:14:59;15.20;63.00
52979;DHT22;63430;53.186;6.598;2023-06-14T00:17:09;15.20;63.40
52979;DHT22;63430;53.186;6.598;2023-06-14T00:19:12;15.10;63.50
52979;DHT22;63430;53.186;6.598;2023-06-14T00:21:21;15.10;64.10
52979;DHT22;63430;53.186;6.598;2023-06-14T00:23:24;15.10;65.00
52979;DHT22;63430;53.186;6.598;2023-06-14T00:25:38;15.10;65.90
52979;DHT22;63430;53.186;6.598;2023-06-14T00:27:43;15.10;66.70
52979;DHT22;63430;53.186;6.598;2023-06-14T00:29:46;15.10;67.40
52979;DHT22;63430;53.186;6.598;2023-06-14T00:31:52;15.10;67.20
52979;DHT22;63430;53.186;6.598;2023-06-14T00:33:55;15.10;67.90
52979;DHT22;63430;53.186;6.598;2023-06-14T00:36:01;15.00;68.60
52979;DHT22;63430;53.186;6.598;2023-06-14T00:38:13;15.00;69.70
52979;DHT22;63430;53.186;6.598;2023-06-14T00:40:16;15.00;70.40
52979;DHT22;63430;53.186;6.598;2023-06-14T00:42:33;15.00;71.30
52979;DHT22;63430;53.186;6.598;2023-06-14T00:44:38;14.90;72.80
52979;DHT22;63430;53.186;6.598;2023-06-14T00:46:40;14.90;73.40
52979;DHT22;63430;53.186;6.598;2023-06-14T00:48:43;14.90;74.30
52979;DHT22;63430;53.186;6.598;2023-06-14T00:50:58;14.90;75.00
52979;DHT22;63430;53.186;6.598;2023-06-14T00:53:07;14.80;76.40
52979;DHT22;63430;53.186;6.598;2023-06-14T00:55:10;14.80;77.80
52979;DHT22;63430;53.186;6.598;2023-06-14T00:57:13;14.80;79.90
52979;DHT22;63430;53.186;6.598;2023-06-14T00:59:16;14.70;80.90
52979;DHT22;63430;53.186;6.598;2023-06-14T01:01:21;14.70;82.00
52979;DHT22;63430;53.186;6.598;2023-06-14T01:03:24;14.70;83.60
52979;DHT22;63430;53.186;6.598;2023-06-14T01:05:29;14.60;84.70
52979;DHT22;63430;53.186;6.598;2023-06-14T01:07:41;14.60;85.90
52979;DHT22;63430;53.186;6.598;2023-06-14T01:09:54;14.60;87.80
52979;DHT22;63430;53.186;6.598;2023-06-14T01:12:04;14.50;88.70
52979;DHT22;63430;53.186;6.598;2023-06-14T01:14:18;14.50;90.10
52979;DHT22;63430;53.186;6.598;2023-06-14T01:16:24;14.50;90.20
52979;DHT22;63430;53.186;6.598;2023-06-14T01:18:28;14.50;90.80
52979;DHT22;63430;53.186;6.598;2023-06-14T01:20:33;14.50;91.20
52979;DHT22;63430;53.186;6.598;2023-06-14T01:22:50;14.40;91.60
52979;DHT22;63430;53.186;6.598;2023-06-14T01:24:53;14.40;93.10
52979;DHT22;63430;53.186;6.598;2023-06-14T01:27:04;14.40;92.10
52979;DHT22;63430;53.186;6.598;2023-06-14T01:29:08;14.40;92.50
52979;DHT22;63430;53.186;6.598;2023-06-14T01:31:22;14.40;92.90
52979;DHT22;63430;53.186;6.598;2023-06-14T01:33:27;14.40;93.00
52979;DHT22;63430;53.186;6.598;2023-06-14T01:35:33;14.30;93.50
52979;DHT22;63430;53.186;6.598;2023-06-14T01:37:49;14.30;93.80
52979;DHT22;63430;53.186;6.598;2023-06-14T01:39:51;14.20;94.60
52979;DHT22;63430;53.186;6.598;2023-06-14T01:41:55;14.10;94.60
52979;DHT22;63430;53.186;6.598;2023-06-14T01:43:58;14.10;95.10
52979;DHT22;63430;53.186;6.598;2023-06-14T01:46:03;14.00;95.50
52979;DHT22;63430;53.186;6.598;2023-06-14T01:48:06;13.90;95.80
52979;DHT22;63430;53.186;6.598;2023-06-14T01:50:10;13.90;98.40
52979;DHT22;63430;53.186;6.598;2023-06-14T01:52:13;13.90;96.20
52979;DHT22;63430;53.186;6.598;2023-06-14T01:54:21;13.80;96.40
52979;DHT22;63430;53.186;6.598;2023-06-14T01:56:25;13.80;97.00
52979;DHT22;63430;53.186;6.598;2023-06-14T01:58:30;13.80;97.20
52979;DHT22;63430;53.186;6.598;2023-06-14T02:00:33;13.70;97.60
52979;DHT22;63430;53.186;6.598;2023-06-14T02:02:36;13.60;98.10
52979;DHT22;63430;53.186;6.598;2023-06-14T02:04:39;13.50;98.50
52979;DHT22;63430;53.186;6.598;2023-06-14T02:06:42;13.50;99.00
52979;DHT22;63430;53.186;6.598;2023-06-14T02:08:46;13.40;99.50
52979;DHT22;63430;53.186;6.598;2023-06-14T02:10:51;13.40;99.90
52979;DHT22;63430;53.186;6.598;2023-06-14T02:12:56;13.30;99.90
52979;DHT22;63430;53.186;6.598;2023-06-14T02:15:05;13.30;99.90
52979;DHT22;63430;53.186;6.598;2023-06-14T02:17:10;13.30;99.90
52979;DHT22;63430;53.186;6.598;2023-06-14T02:19:12;13.30;99.90
52979;DHT22;63430;53.186;6.598;2023-06-14T02:21:15;13.30;99.90
52979;DHT22;63430;53.186;6.598;2023-06-14T02:23:24;13.30;99.90
52979;DHT22;63430;53.186;6.598;2023-06-14T02:25:26;13.20;99.90
52979;DHT22;63430;53.186;6.598;2023-06-14T02:27:35;13.20;99.90
52979;DHT22;63430;53.186;6.598;2023-06-14T02:29:38;13.20;99.90
52979;DHT22;63430;53.186;6.598;2023-06-14T02:31:41;13.20;99.90
52979;DHT22;63430;53.186;6.598;2023-06-14T02:33:43;13.10;99.90
52979;DHT22;63430;53.186;6.598;2023-06-14T02:35:46;13.10;99.90
52979;DHT22;63430;53.186;6.598;2023-06-14T02:37:49;13.10;99.90
52979;DHT22;63430;53.186;6.598;2023-06-14T02:39:53;13.10;99.90
52979;DHT22;63430;53.186;6.598;2023-06-14T02:41:56;13.00;99.90
52979;DHT22;63430;53.186;6.598;2023-06-14T02:44:02;13.00;99.90
52979;DHT22;63430;53.186;6.598;2023-06-14T02:46:04;13.00;99.90
52979;DHT22;63430;53.186;6.598;2023-06-14T02:48:07;12.90;99.90
52979;DHT22;63430;53.186;6.598;2023-06-14T02:50:22;12.90;99.90
52979;DHT22;63430;53.186;6.598;2023-06-14T02:52:28;12.90;99.90
52979;DHT22;63430;53.186;6.598;2023-06-14T02:54:34;12.90;99.90
52979;DHT22;63430;53.186;6.598;2023-06-14T02:56:37;12.90;99.90
52979;DHT22;63430;53.186;6.598;2023-06-14T02:58:40;12.90;99.90
52979;DHT22;63430;53.186;6.598;2023-06-14T03:00:46;12.90;99.90
52979;DHT22;63430;53.186;6.598;2023-06-14T03:02:54;12.90;99.90
52979;DHT22;63430;53.186;6.598;2023-06-14T03:04:58;12.90;99.90
52979;DHT22;63430;53.186;6.598;2023-06-14T03:07:05;12.90;99.90
52979;DHT22;63430;53.186;6.598;2023-06-14T03:09:17;12.90;99.90
52979;DHT22;63430;53.186;6.598;2023-06-14T03:11:21;13.00;99.90
52979;DHT22;63430;53.186;6.598;2023-06-14T03:13:25;13.10;99.90
52979;DHT22;63430;53.186;6.598;2023-06-14T03:15:29;13.00;99.90
52979;DHT22;63430;53.186;6.598;2023-06-14T03:17:36;12.90;99.90
52979;DHT22;63430;53.186;6.598;2023-06-14T03:19:43;12.90;99.90
52979;DHT22;63430;53.186;6.598;2023-06-14T03:21:47;12.90;99.90
52979;DHT22;63430;53.186;6.598;2023-06-14T03:23:50;12.90;99.90
52979;DHT22;63430;53.186;6.598;2023-06-14T03:26:14;12.90;99.90
52979;DHT22;63430;53.186;6.598;2023-06-14T03:28:42;12.90;99.90
52979;DHT22;63430;53.186;6.598;2023-06-14T03:31:04;12.90;99.90
52979;DHT22;63430;53.186;6.598;2023-06-14T03:33:30;13.00;99.90
52979;DHT22;63430;53.186;6.598;2023-06-14T03:35:52;12.90;99.90
52979;DHT22;63430;53.186;6.598;2023-06-14T03:38:16;13.00;99.90
52979;DHT22;63430;53.186;6.598;2023-06-14T03:40:38;13.00;99.90
52979;DHT22;63430;53.186;6.598;2023-06-14T03:43:01;13.00;99.90
52979;DHT22;63430;53.186;6.598;2023-06-14T03:45:24;13.00;99.90
52979;DHT22;63430;53.186;6.598;2023-06-14T03:47:47;13.00;99.90
52979;DHT22;63430;53.186;6.598;2023-06-14T03:50:13;13.00;99.90
52979;DHT22;63430;53.186;6.598;2023-06-14T03:52:36;13.00;99.90
52979;DHT22;63430;53.186;6.598;2023-06-14T03:54:59;13.00;99.90
52979;DHT22;63430;53.186;6.598;2023-06-14T03:57:07;13.00;99.90
52979;DHT22;63430;53.186;6.598;2023-06-14T03:59:10;13.00;99.90
52979;DHT22;63430;53.186;6.598;2023-06-14T04:01:14;13.10;99.90
52979;DHT22;63430;53.186;6.598;2023-06-14T04:03:17;13.10;99.90
52979;DHT22;63430;53.186;6.598;2023-06-14T04:05:26;13.10;99.90
52979;DHT22;63430;53.186;6.598;2023-06-14T04:07:31;13.10;99.90
52979;DHT22;63430;53.186;6.598;2023-06-14T04:09:35;13.20;99.90
52979;DHT22;63430;53.186;6.598;2023-06-14T04:11:39;13.20;99.90
52979;DHT22;63430;53.186;6.598;2023-06-14T04:13:42;13.30;99.90
52979;DHT22;63430;53.186;6.598;2023-06-14T04:15:46;13.30;99.90
52979;DHT22;63430;53.186;6.598;2023-06-14T04:17:56;13.40;99.90
52979;DHT22;63430;53.186;6.598;2023-06-14T04:20:02;13.40;99.90
52979;DHT22;63430;53.186;6.598;2023-06-14T04:22:10;13.50;99.90
52979;DHT22;63430;53.186;6.598;2023-06-14T04:24:15;13.50;99.90
52979;DHT22;63430;53.186;6.598;2023-06-14T04:26:22;13.60;99.90
52979;DHT22;63430;53.186;6.598;2023-06-14T04:28:29;13.60;99.90
52979;DHT22;63430;53.186;6.598;2023-06-14T04:30:35;13.60;99.90
52979;DHT22;63430;53.186;6.598;2023-06-14T04:32:45;13.70;99.90
52979;DHT22;63430;53.186;6.598;2023-06-14T04:34:49;13.70;99.90
52979;DHT22;63430;53.186;6.598;2023-06-14T04:36:54;13.80;99.90
52979;DHT22;63430;53.186;6.598;2023-06-14T04:39:08;13.90;99.90
52979;DHT22;63430;53.186;6.598;2023-06-14T04:41:11;13.90;99.90
52979;DHT22;63430;53.186;6.598;2023-06-14T04:43:17;14.00;99.90
52979;DHT22;63430;53.186;6.598;2023-06-14T04:45:24;14.00;99.90
52979;DHT22;63430;53.186;6.598;2023-06-14T04:47:35;14.10;99.90
52979;DHT22;63430;53.186;6.598;2023-06-14T04:49:40;14.10;99.90
52979;DHT22;63430;53.186;6.598;2023-06-14T04:51:45;14.20;99.90
52979;DHT22;63430;53.186;6.598;2023-06-14T04:53:49;14.20;99.90
52979;DHT22;63430;53.186;6.598;2023-06-14T04:55:56;14.20;99.90
52979;DHT22;63430;53.186;6.598;2023-06-14T04:58:01;14.30;99.90
52979;DHT22;63430;53.186;6.598;2023-06-14T05:00:06;14.30;99.90
52979;DHT22;63430;53.186;6.598;2023-06-14T05:02:10;14.40;99.90
52979;DHT22;63430;53.186;6.598;2023-06-14T05:04:14;14.40;99.90
52979;DHT22;63430;53.186;6.598;2023-06-14T05:06:18;14.40;99.90
52979;DHT22;63430;53.186;6.598;2023-06-14T05:08:22;14.50;99.90
52979;DHT22;63430;53.186;6.598;2023-06-14T05:10:29;14.50;99.90
52979;DHT22;63430;53.186;6.598;2023-06-14T05:12:35;14.60;99.90
52979;DHT22;63430;53.186;6.598;2023-06-14T05:14:41;14.70;99.90
52979;DHT22;63430;53.186;6.598;2023-06-14T05:16:44;14.60;99.90
52979;DHT22;63430;53.186;6.598;2023-06-14T05:18:47;14.70;99.90
52979;DHT22;63430;53.186;6.598;2023-06-14T05:20:51;14.80;99.90
52979;DHT22;63430;53.186;6.598;2023-06-14T05:22:55;14.80;99.90
52979;DHT22;63430;53.186;6.598;2023-06-14T05:25:00;14.90;99.90
52979;DHT22;63430;53.186;6.598;2023-06-14T05:27:04;15.00;99.90
52979;DHT22;63430;53.186;6.598;2023-06-14T05:29:13;15.10;99.90
52979;DHT22;63430;53.186;6.598;2023-06-14T05:31:16;15.20;99.90
52979;DHT22;63430;53.186;6.598;2023-06-14T05:33:19;15.40;99.90
52979;DHT22;63430;53.186;6.598;2023-06-14T05:35:24;15.50;99.90
52979;DHT22;63430;53.186;6.598;2023-06-14T05:37:29;15.70;99.90
52979;DHT22;63430;53.186;6.598;2023-06-14T05:39:34;15.80;99.90
52979;DHT22;63430;53.186;6.598;2023-06-14T05:41:37;16.00;99.90
52979;DHT22;63430;53.186;6.598;2023-06-14T05:43:40;16.20;99.90
52979;DHT22;63430;53.186;6.598;2023-06-14T05:45:46;16.40;99.90
52979;DHT22;63430;53.186;6.598;2023-06-14T05:47:50;16.60;99.90
52979;DHT22;63430;53.186;6.598;2023-06-14T05:49:54;16.80;99.90
52979;DHT22;63430;53.186;6.598;2023-06-14T05:51:59;16.90;99.90
52979;DHT22;63430;53.186;6.598;2023-06-14T05:54:02;17.20;99.90
52979;DHT22;63430;53.186;6.598;2023-06-14T05:56:05;17.20;99.90
52979;DHT22;63430;53.186;6.598;2023-06-14T05:58:08;17.40;99.90
52979;DHT22;63430;53.186;6.598;2023-06-14T06:00:12;17.50;99.90
52979;DHT22;63430;53.186;6.598;2023-06-14T06:02:20;17.70;99.90
52979;DHT22;63430;53.186;6.598;2023-06-14T06:04:23;17.90;99.90
52979;DHT22;63430;53.186;6.598;2023-06-14T06:06:26;18.10;99.90
52979;DHT22;63430;53.186;6.598;2023-06-14T06:08:29;18.30;99.90
52979;DHT22;63430;53.186;6.598;2023-06-14T06:10:32;18.50;99.90
52979;DHT22;63430;53.186;6.598;2023-06-14T06:12:34;18.50;99.90
52979;DHT22;63430;53.186;6.598;2023-06-14T06:14:37;18.60;99.90
52979;DHT22;63430;53.186;6.598;2023-06-14T06:16:40;18.70;99.90
52979;DHT22;63430;53.186;6.598;2023-06-14T06:18:45;18.90;99.90
52979;DHT22;63430;53.186;6.598;2023-06-14T06:20:48;19.10;99.70
52979;DHT22;63430;53.186;6.598;2023-06-14T06:22:51;19.20;99.10
52979;DHT22;63430;53.186;6.598;2023-06-14T06:24:53;19.40;98.90
52979;DHT22;63430;53.186;6.598;2023-06-14T06:26:56;19.50;98.60
52979;DHT22;63430;53.186;6.598;2023-06-14T06:28:58;19.80;98.40
52979;DHT22;63430;53.186;6.598;2023-06-14T06:31:01;19.90;97.40
52979;DHT22;63430;53.186;6.598;2023-06-14T06:33:06;20.10;96.60
52979;DHT22;63430;53.186;6.598;2023-06-14T06:35:12;20.30;96.00
52979;DHT22;63430;53.186;6.598;2023-06-14T06:37:15;20.40;95.00
52979;DHT22;63430;53.186;6.598;2023-06-14T06:39:18;20.60;94.60
52979;DHT22;63430;53.186;6.598;2023-06-14T06:41:21;20.70;93.90
52979;DHT22;63430;53.186;6.598;2023-06-14T06:43:23;20.80;92.80
52979;DHT22;63430;53.186;6.598;2023-06-14T06:45:26;20.80;92.70
52979;DHT22;63430;53.186;6.598;2023-06-14T06:47:29;21.00;92.50
52979;DHT22;63430;53.186;6.598;2023-06-14T06:49:31;21.10;91.50
52979;DHT22;63430;53.186;6.598;2023-06-14T06:51:40;21.30;91.20
52979;DHT22;63430;53.186;6.598;2023-06-14T06:53:52;21.50;90.20
52979;DHT22;63430;53.186;6.598;2023-06-14T06:55:55;21.60;85.30
52979;DHT22;63430;53.186;6.598;2023-06-14T06:57:57;21.70;84.40
52979;DHT22;63430;53.186;6.598;2023-06-14T07:00:01;21.80;80.70
52979;DHT22;63430;53.186;6.598;2023-06-14T07:02:04;21.90;78.50
52979;DHT22;63430;53.186;6.598;2023-06-14T07:04:07;22.00;77.60
52979;DHT22;63430;53.186;6.598;2023-06-14T07:06:10;22.20;77.20
52979;DHT22;63430;53.186;6.598;2023-06-14T07:08:15;22.30;75.80
52979;DHT22;63430;53.186;6.598;2023-06-14T07:10:20;22.30;71.80
52979;DHT22;63430;53.186;6.598;2023-06-14T07:12:23;22.30;73.10
52979;DHT22;63430;53.186;6.598;2023-06-14T07:14:26;22.40;71.70
52979;DHT22;63430;53.186;6.598;2023-06-14T07:16:28;22.50;70.60
52979;DHT22;63430;53.186;6.598;2023-06-14T07:18:32;22.70;69.90
52979;DHT22;63430;53.186;6.598;2023-06-14T07:20:36;22.80;68.80
52979;DHT22;63430;53.186;6.598;2023-06-14T07:22:43;22.80;66.40
52979;DHT22;63430;53.186;6.598;2023-06-14T07:24:48;22.70;63.00
52979;DHT22;63430;53.186;6.598;2023-06-14T07:26:51;22.70;63.10
52979;DHT22;63430;53.186;6.598;2023-06-14T07:28:54;22.80;62.50
52979;DHT22;63430;53.186;6.598;2023-06-14T07:30:56;23.00;62.10
52979;DHT22;63430;53.186;6.598;2023-06-14T07:33:00;23.00;61.10
52979;DHT22;63430;53.186;6.598;2023-06-14T07:35:03;23.00;60.50
52979;DHT22;63430;53.186;6.598;2023-06-14T07:37:06;23.10;59.70
52979;DHT22;63430;53.186;6.598;2023-06-14T07:39:08;23.10;59.40
52979;DHT22;63430;53.186;6.598;2023-06-14T07:41:15;23.20;58.40
52979;DHT22;63430;53.186;6.598;2023-06-14T07:43:18;23.10;56.60
52979;DHT22;63430;53.186;6.598;2023-06-14T07:45:23;23.10;55.80
52979;DHT22;63430;53.186;6.598;2023-06-14T07:47:26;23.20;55.70
52979;DHT22;63430;53.186;6.598;2023-06-14T07:49:29;23.20;55.30
52979;DHT22;63430;53.186;6.598;2023-06-14T07:51:32;23.30;54.70
52979;DHT22;63430;53.186;6.598;2023-06-14T07:53:34;23.40;54.50
52979;DHT22;63430;53.186;6.598;2023-06-14T07:55:38;23.50;54.20
52979;DHT22;63430;53.186;6.598;2023-06-14T07:57:57;23.60;54.10
52979;DHT22;63430;53.186;6.598;2023-06-14T07:59:59;23.80;53.90
52979;DHT22;63430;53.186;6.598;2023-06-14T08:02:02;23.90;53.00
52979;DHT22;63430;53.186;6.598;2023-06-14T08:04:05;23.90;52.00
52979;DHT22;63430;53.186;6.598;2023-06-14T08:06:07;23.80;51.50
52979;DHT22;63430;53.186;6.598;2023-06-14T08:08:10;23.90;51.80
52979;DHT22;63430;53.186;6.598;2023-06-14T08:10:13;23.80;50.90
52979;DHT22;63430;53.186;6.598;2023-06-14T08:12:16;23.90;51.20
52979;DHT22;63430;53.186;6.598;2023-06-14T08:14:21;23.90;51.60
52979;DHT22;63430;53.186;6.598;2023-06-14T08:16:24;23.90;51.40
52979;DHT22;63430;53.186;6.598;2023-06-14T08:18:27;24.00;51.20
52979;DHT22;63430;53.186;6.598;2023-06-14T08:20:30;24.10;51.20
52979;DHT22;63430;53.186;6.598;2023-06-14T08:22:33;24.10;50.80
52979;DHT22;63430;53.186;6.598;2023-06-14T08:24:36;24.20;50.50
52979;DHT22;63430;53.186;6.598;2023-06-14T08:26:39;24.30;50.10
52979;DHT22;63430;53.186;6.598;2023-06-14T08:28:41;24.30;50.00
52979;DHT22;63430;53.186;6.598;2023-06-14T08:30:46;24.20;50.60
52979;DHT22;63430;53.186;6.598;2023-06-14T08:32:49;24.20;49.20
52979;DHT22;63430;53.186;6.598;2023-06-14T08:35:08;24.40;49.50
52979;DHT22;63430;53.186;6.598;2023-06-14T08:37:10;24.20;49.20
52979;DHT22;63430;53.186;6.598;2023-06-14T08:39:13;24.20;49.40
52979;DHT22;63430;53.186;6.598;2023-06-14T08:41:21;24.40;49.60
52979;DHT22;63430;53.186;6.598;2023-06-14T08:43:25;24.50;48.50
52979;DHT22;63430;53.186;6.598;2023-06-14T08:45:27;24.60;47.40
52979;DHT22;63430;53.186;6.598;2023-06-14T08:47:36;24.60;46.80
52979;DHT22;63430;53.186;6.598;2023-06-14T08:49:46;24.40;43.70
52979;DHT22;63430;53.186;6.598;2023-06-14T08:51:51;24.20;45.90
52979;DHT22;63430;53.186;6.598;2023-06-14T08:53:57;24.10;46.30
52979;DHT22;63430;53.186;6.598;2023-06-14T08:56:02;24.20;46.00
52979;DHT22;63430;53.186;6.598;2023-06-14T08:58:07;24.40;45.60
52979;DHT22;63430;53.186;6.598;2023-06-14T09:00:13;24.50;45.00
52979;DHT22;63430;53.186;6.598;2023-06-14T09:02:17;24.60;44.40
52979;DHT22;63430;53.186;6.598;2023-06-14T09:04:24;24.40;44.50
52979;DHT22;63430;53.186;6.598;2023-06-14T09:06:28;24.60;44.70
52979;DHT22;63430;53.186;6.598;2023-06-14T09:08:31;24.70;44.90
52979;DHT22;63430;53.186;6.598;2023-06-14T09:10:36;24.80;45.20
52979;DHT22;63430;53.186;6.598;2023-06-14T09:12:41;24.80;45.80
52979;DHT22;63430;53.186;6.598;2023-06-14T09:14:44;24.80;46.00
52979;DHT22;63430;53.186;6.598;2023-06-14T09:16:48;24.90;45.50
52979;DHT22;63430;53.186;6.598;2023-06-14T09:18:50;25.00;45.40
52979;DHT22;63430;53.186;6.598;2023-06-14T09:20:56;25.00;45.70
52979;DHT22;63430;53.186;6.598;2023-06-14T09:23:00;24.90;45.90
52979;DHT22;63430;53.186;6.598;2023-06-14T09:25:03;24.80;45.60
52979;DHT22;63430;53.186;6.598;2023-06-14T09:27:08;24.70;45.40
52979;DHT22;63430;53.186;6.598;2023-06-14T09:29:10;24.80;45.60
52979;DHT22;63430;53.186;6.598;2023-06-14T09:31:14;24.80;45.30
52979;DHT22;63430;53.186;6.598;2023-06-14T09:33:17;25.00;45.40
52979;DHT22;63430;53.186;6.598;2023-06-14T09:35:20;25.20;45.20
52979;DHT22;63430;53.186;6.598;2023-06-14T09:37:32;25.20;45.20
52979;DHT22;63430;53.186;6.598;2023-06-14T09:39:35;25.30;45.60
52979;DHT22;63430;53.186;6.598;2023-06-14T09:41:38;25.40;45.60
52979;DHT22;63430;53.186;6.598;2023-06-14T09:43:42;25.40;44.80
52979;DHT22;63430;53.186;6.598;2023-06-14T09:45:45;25.30;43.80
52979;DHT22;63430;53.186;6.598;2023-06-14T09:47:50;25.30;43.80
52979;DHT22;63430;53.186;6.598;2023-06-14T09:50:08;25.40;44.00
52979;DHT22;63430;53.186;6.598;2023-06-14T09:52:12;25.30;43.60
52979;DHT22;63430;53.186;6.598;2023-06-14T09:54:22;25.30;43.40
52979;DHT22;63430;53.186;6.598;2023-06-14T09:56:28;25.30;42.90
52979;DHT22;63430;53.186;6.598;2023-06-14T09:58:33;25.30;42.80
52979;DHT22;63430;53.186;6.598;2023-06-14T10:00:39;25.30;42.80
52979;DHT22;63430;53.186;6.598;2023-06-14T10:02:43;25.30;42.90
52979;DHT22;63430;53.186;6.598;2023-06-14T10:04:56;25.30;42.80
52979;DHT22;63430;53.186;6.598;2023-06-14T10:07:00;25.20;42.50
52979;DHT22;63430;53.186;6.598;2023-06-14T10:09:08;25.30;42.60
52979;DHT22;63430;53.186;6.598;2023-06-14T10:11:14;25.50;41.50
52979;DHT22;63430;53.186;6.598;2023-06-14T10:13:18;25.50;40.60
52979;DHT22;63430;53.186;6.598;2023-06-14T10:15:27;25.50;41.50
52979;DHT22;63430;53.186;6.598;2023-06-14T10:17:38;25.40;41.40
52979;DHT22;63430;53.186;6.598;2023-06-14T10:19:45;25.30;41.90
52979;DHT22;63430;53.186;6.598;2023-06-14T10:21:58;25.30;42.50
52979;DHT22;63430;53.186;6.598;2023-06-14T10:24:07;25.30;42.70
52979;DHT22;63430;53.186;6.598;2023-06-14T10:26:20;25.30;42.20
52979;DHT22;63430;53.186;6.598;2023-06-14T10:28:27;25.20;42.60
52979;DHT22;63430;53.186;6.598;2023-06-14T10:30:30;25.30;42.50
52979;DHT22;63430;53.186;6.598;2023-06-14T10:32:33;25.20;42.30
52979;DHT22;63430;53.186;6.598;2023-06-14T10:34:38;25.30;42.80
52979;DHT22;63430;53.186;6.598;2023-06-14T10:36:42;25.20;41.80
52979;DHT22;63430;53.186;6.598;2023-06-14T10:38:48;24.90;42.50
52979;DHT22;63430;53.186;6.598;2023-06-14T10:40:59;24.70;42.70
52979;DHT22;63430;53.186;6.598;2023-06-14T10:43:21;24.80;43.20
52979;DHT22;63430;53.186;6.598;2023-06-14T10:45:24;24.80;42.70
52979;DHT22;63430;53.186;6.598;2023-06-14T10:47:28;24.80;43.10
52979;DHT22;63430;53.186;6.598;2023-06-14T10:49:39;24.90;43.00
52979;DHT22;63430;53.186;6.598;2023-06-14T10:51:49;24.90;42.90
52979;DHT22;63430;53.186;6.598;2023-06-14T10:53:52;24.90;42.50
52979;DHT22;63430;53.186;6.598;2023-06-14T10:55:56;24.90;42.90
52979;DHT22;63430;53.186;6.598;2023-06-14T10:58:11;25.10;43.00
52979;DHT22;63430;53.186;6.598;2023-06-14T11:00:15;25.00;43.00
52979;DHT22;63430;53.186;6.598;2023-06-14T11:05:04;25.30;42.50
52979;DHT22;63430;53.186;6.598;2023-06-14T11:07:30;25.30;42.40
52979;DHT22;63430;53.186;6.598;2023-06-14T11:10:05;25.20;40.60
52979;DHT22;63430;53.186;6.598;2023-06-14T11:12:13;25.10;41.40
52979;DHT22;63430;53.186;6.598;2023-06-14T11:14:20;25.20;42.00
52979;DHT22;63430;53.186;6.598;2023-06-14T11:16:26;25.40;41.80
52979;DHT22;63430;53.186;6.598;2023-06-14T11:18:30;25.30;40.50
52979;DHT22;63430;53.186;6.598;2023-06-14T11:20:34;25.20;41.30
52979;DHT22;63430;53.186;6.598;2023-06-14T11:22:41;25.10;41.00
52979;DHT22;63430;53.186;6.598;2023-06-14T11:24:43;24.90;41.20
52979;DHT22;63430;53.186;6.598;2023-06-14T11:26:47;24.60;41.50
52979;DHT22;63430;53.186;6.598;2023-06-14T11:28:55;24.60;41.90
52979;DHT22;63430;53.186;6.598;2023-06-14T11:31:04;24.70;42.30
52979;DHT22;63430;53.186;6.598;2023-06-14T11:33:10;24.80;40.90
52979;DHT22;63430;53.186;6.598;2023-06-14T11:35:13;24.80;40.90
52979;DHT22;63430;53.186;6.598;2023-06-14T11:37:17;24.70;40.90
52979;DHT22;63430;53.186;6.598;2023-06-14T11:39:24;24.70;41.20
52979;DHT22;63430;53.186;6.598;2023-06-14T11:41:32;24.90;41.70
52979;DHT22;63430;53.186;6.598;2023-06-14T11:43:40;25.10;41.10
52979;DHT22;63430;53.186;6.598;2023-06-14T11:45:42;25.10;41.50
52979;DHT22;63430;53.186;6.598;2023-06-14T11:47:55;25.10;40.40
52979;DHT22;63430;53.186;6.598;2023-06-14T11:50:01;24.90;40.30
52979;DHT22;63430;53.186;6.598;2023-06-14T11:52:04;24.80;40.30
52979;DHT22;63430;53.186;6.598;2023-06-14T11:54:07;24.90;39.30
52979;DHT22;63430;53.186;6.598;2023-06-14T11:56:11;25.00;40.00
52979;DHT22;63430;53.186;6.598;2023-06-14T11:58:14;24.90;39.90
52979;DHT22;63430;53.186;6.598;2023-06-14T12:00:17;24.70;39.80
52979;DHT22;63430;53.186;6.598;2023-06-14T12:02:21;24.70;40.50
52979;DHT22;63430;53.186;6.598;2023-06-14T12:04:29;25.00;40.30
52979;DHT22;63430;53.186;6.598;2023-06-14T12:06:32;25.20;39.90
52979;DHT22;63430;53.186;6.598;2023-06-14T12:08:36;25.30;40.10
52979;DHT22;63430;53.186;6.598;2023-06-14T12:10:43;25.40;39.90
52979;DHT22;63430;53.186;6.598;2023-06-14T12:12:46;25.50;39.60
52979;DHT22;63430;53.186;6.598;2023-06-14T12:14:49;25.40;39.10
52979;DHT22;63430;53.186;6.598;2023-06-14T12:17:04;25.30;39.20
52979;DHT22;63430;53.186;6.598;2023-06-14T12:19:11;25.10;39.70
52979;DHT22;63430;53.186;6.598;2023-06-14T12:21:17;24.80;38.90
52979;DHT22;63430;53.186;6.598;2023-06-14T12:23:22;24.80;39.20
52979;DHT22;63430;53.186;6.598;2023-06-14T12:25:27;24.80;39.10
52979;DHT22;63430;53.186;6.598;2023-06-14T12:27:30;24.90;38.00
52979;DHT22;63430;53.186;6.598;2023-06-14T12:29:33;25.10;37.70
52979;DHT22;63430;53.186;6.598;2023-06-14T12:31:36;25.50;37.80
52979;DHT22;63430;53.186;6.598;2023-06-14T12:33:38;25.60;37.30
52979;DHT22;63430;53.186;6.598;2023-06-14T12:35:41;25.80;36.90
52979;DHT22;63430;53.186;6.598;2023-06-14T12:37:47;26.10;36.50
52979;DHT22;63430;53.186;6.598;2023-06-14T12:39:49;26.20;36.40
52979;DHT22;63430;53.186;6.598;2023-06-14T12:41:53;26.20;36.80
52979;DHT22;63430;53.186;6.598;2023-06-14T12:43:56;26.20;36.70
52979;DHT22;63430;53.186;6.598;2023-06-14T12:46:00;26.20;36.50
52979;DHT22;63430;53.186;6.598;2023-06-14T12:48:03;26.40;36.70
52979;DHT22;63430;53.186;6.598;2023-06-14T12:50:07;26.40;36.60
52979;DHT22;63430;53.186;6.598;2023-06-14T12:52:10;26.10;36.80
52979;DHT22;63430;53.186;6.598;2023-06-14T12:54:15;26.00;36.20
52979;DHT22;63430;53.186;6.598;2023-06-14T12:56:40;26.00;37.00
52979;DHT22;63430;53.186;6.598;2023-06-14T12:58:44;26.10;37.20
52979;DHT22;63430;53.186;6.598;2023-06-14T13:00:47;26.30;36.70
52979;DHT22;63430;53.186;6.598;2023-06-14T13:02:50;26.30;35.80
52979;DHT22;63430;53.186;6.598;2023-06-14T13:04:53;26.50;35.90
52979;DHT22;63430;53.186;6.598;2023-06-14T13:06:55;26.20;36.20
52979;DHT22;63430;53.186;6.598;2023-06-14T13:08:58;26.20;35.80
52979;DHT22;63430;53.186;6.598;2023-06-14T13:11:04;26.30;36.30
52979;DHT22;63430;53.186;6.598;2023-06-14T13:13:06;26.40;35.90
52979;DHT22;63430;53.186;6.598;2023-06-14T13:15:10;26.20;35.80
52979;DHT22;63430;53.186;6.598;2023-06-14T13:17:12;26.20;35.90